Time;durP1;ratioP1;P1;durP2;ratioP2;P2;SDS_P1;SDS_P2;PMS_P1;PMS_P2;Temp;Humidity;BMP_temperature;BMP_pressure;BME280_temperature;BME280_humidity;BME280_pressure;Samples;Min_cycle;Max_cycle;Signal;HPM_P1;HPM_P2
2022/11/05 00:11:01;;;;;;;0.00;0.00;;;;;;;12.13;69.80;99114.31;4368160;32;32732;-83
2022/11/05 00:19:05;;;;;;;0.17;0.17;;;;;;;12.32;68.37;99096.38;4364692;32;33501;-83
2022/11/05 00:27:09;;;;;;;0.82;0.77;;;;;;;11.81;70.54;99090.62;4374981;32;33596;-82
2022/11/05 00:29:37;;;;;;;0.35;0.35;;;;;;;11.70;70.53;99098.34;4367501;32;34272;-84
2022/11/05 00:32:05;;;;;;;0.45;0.45;;;;;;;11.15;72.59;99107.69;4373060;32;33230;-84
2022/11/05 00:34:33;;;;;;;0.00;0.00;;;;;;;11.39;71.43;99097.50;4371527;32;33405;-85
2022/11/05 00:37:01;;;;;;;0.17;0.17;;;;;;;11.34;71.86;99101.34;4380195;32;33844;-85
2022/11/05 00:39:29;;;;;;;0.15;0.15;;;;;;;11.30;72.16;99106.00;4376487;32;33296;-85
2022/11/05 00:45:00;;;;;;;0.10;0.10;;;;;;;11.43;71.48;99106.09;4368404;32;33282;-85
2022/11/05 00:50:35;;;;;;;0.10;0.10;;;;;;;11.40;71.19;99103.66;4339295;33;34800;-85
2022/11/05 00:53:05;;;;;;;0.20;0.20;;;;;;;11.59;70.51;99096.34;4369166;32;34136;-86
2022/11/05 00:55:38;;;;;;;0.30;0.30;;;;;;;11.42;71.06;99099.97;4375259;32;33677;-84
2022/11/05 00:58:12;;;;;;;0.47;0.05;;;;;;;11.69;70.19;99094.87;4378127;32;32527;-84
2022/11/05 01:00:47;;;;;;;0.20;0.20;;;;;;;11.47;70.67;99092.63;4375858;32;33673;-83
2022/11/05 01:03:16;;;;;;;0.10;0.10;;;;;;;11.52;70.30;99100.28;4378317;32;32707;-83
2022/11/05 01:05:47;;;;;;;0.70;0.70;;;;;;;11.28;70.88;99102.56;4383376;32;32296;-83
2022/11/05 01:08:19;;;;;;;0.07;0.07;;;;;;;11.51;70.40;99110.00;4375290;32;33657;-83
2022/11/05 01:10:50;;;;;;;0.00;0.00;;;;;;;11.47;70.36;99099.72;4375310;32;34019;-83
2022/11/05 01:13:29;;;;;;;1.15;1.08;;;;;;;11.25;71.50;99110.66;4381597;32;33079;-84
2022/11/05 01:15:57;;;;;;;0.20;0.20;;;;;;;11.53;70.33;99105.47;4361818;32;35211;-83
2022/11/05 01:18:24;;;;;;;0.10;0.10;;;;;;;11.46;70.69;99109.44;4367623;32;33892;-84
2022/11/05 01:20:52;;;;;;;0.00;0.00;;;;;;;11.59;70.03;99111.38;4358721;32;32709;-83
2022/11/05 01:23:20;;;;;;;0.65;0.30;;;;;;;11.24;71.28;99117.72;4369308;32;34482;-83
2022/11/05 01:25:50;;;;;;;1.95;0.47;;;;;;;11.19;71.76;99116.31;4367735;32;32670;-83
2022/11/05 01:28:18;;;;;;;0.00;0.00;;;;;;;11.22;71.94;99118.78;4370178;32;34129;-83
2022/11/05 01:30:54;;;;;;;0.75;0.47;;;;;;;11.16;71.59;99104.13;4374709;32;34447;-82
2022/11/05 01:33:22;;;;;;;0.57;0.57;;;;;;;11.33;71.32;99108.44;4366535;32;33780;-82
2022/11/05 01:35:50;;;;;;;1.45;0.22;;;;;;;11.46;70.78;99101.50;4380534;32;33352;-82
2022/11/05 01:38:18;;;;;;;0.00;0.00;;;;;;;11.46;70.46;99095.38;4378244;32;33594;-83
2022/11/05 01:40:46;;;;;;;0.40;0.40;;;;;;;11.27;71.22;99106.16;4382770;32;33620;-83
2022/11/05 01:43:21;;;;;;;0.30;0.30;;;;;;;11.49;70.49;99109.25;4381467;32;34215;-83
2022/11/05 01:45:53;;;;;;;0.00;0.00;;;;;;;11.64;69.79;99120.72;4376196;32;33747;-83
2022/11/05 01:48:24;;;;;;;0.00;0.00;;;;;;;11.16;71.78;99129.72;4375466;32;33788;-83
2022/11/05 01:50:56;;;;;;;0.00;0.00;;;;;;;11.18;71.45;99138.38;4373217;32;33932;-83
2022/11/05 01:53:35;;;;;;;1.83;0.73;;;;;;;11.54;70.26;99132.78;4374284;32;33293;-82
2022/11/05 01:56:15;;;;;;;0.45;0.45;;;;;;;11.31;71.00;99139.41;4369699;32;33421;-82
2022/11/05 01:58:50;;;;;;;0.32;0.32;;;;;;;11.40;70.70;99130.94;4374119;32;35112;-83
2022/11/05 02:01:19;;;;;;;0.10;0.10;;;;;;;11.33;71.20;99132.22;4380485;32;33010;-82
2022/11/05 02:03:49;;;;;;;0.00;0.00;;;;;;;11.36;71.23;99123.28;4369956;32;34395;-84
2022/11/05 02:06:18;;;;;;;0.25;0.25;;;;;;;11.39;70.81;99131.84;4375101;32;33552;-85
2022/11/05 02:09:10;;;;;;;0.28;0.28;;;;;;;11.08;72.22;99137.22;4369102;32;33668;-84
2022/11/05 02:11:42;;;;;;;0.20;0.20;;;;;;;11.47;70.71;99145.50;4368514;32;34383;-85
2022/11/05 02:14:11;;;;;;;0.05;0.05;;;;;;;11.18;72.17;99141.88;4375304;32;34170;-84
2022/11/05 02:16:48;;;;;;;0.57;0.57;;;;;;;11.39;70.95;99147.72;4381018;32;32970;-84
2022/11/05 02:19:38;;;;;;;1.08;0.98;;;;;;;10.75;73.17;99156.63;4369387;32;34267;-84
2022/11/05 02:22:09;;;;;;;0.70;0.70;;;;;;;10.74;73.77;99149.66;4377427;32;32345;-83
2022/11/05 02:25:25;;;;;;;0.73;0.73;;;;;;;10.96;72.53;99144.84;4371536;32;33531;-83
2022/11/05 02:28:17;;;;;;;0.00;0.00;;;;;;;11.05;71.81;99142.66;4350605;32;32680;-83
2022/11/05 02:31:09;;;;;;;0.22;0.22;;;;;;;10.89;72.29;99135.59;4379643;32;34387;-83
2022/11/05 02:33:55;;;;;;;0.43;0.43;;;;;;;10.92;72.36;99143.34;4368787;32;33562;-84
2022/11/05 02:36:45;;;;;;;0.20;0.20;;;;;;;10.75;72.95;99140.78;4369897;32;33809;-84
2022/11/05 02:39:23;;;;;;;0.00;0.00;;;;;;;10.58;73.55;99156.69;4368709;32;33031;-85
2022/11/05 02:42:10;;;;;;;0.10;0.10;;;;;;;10.61;73.58;99148.59;4349897;32;33538;-84
2022/11/05 02:44:44;;;;;;;0.20;0.20;;;;;;;10.81;72.90;99152.78;4361829;32;34303;-84
2022/11/05 02:47:18;;;;;;;0.10;0.10;;;;;;;10.43;74.33;99153.06;4378402;32;33629;-84
2022/11/05 02:50:08;;;;;;;0.17;0.17;;;;;;;10.80;72.81;99153.72;4372475;32;32466;-84
2022/11/05 02:52:52;;;;;;;0.20;0.20;;;;;;;10.64;73.42;99165.13;4361716;32;34379;-85
2022/11/05 02:55:37;;;;;;;0.25;0.25;;;;;;;10.98;71.99;99156.22;4380130;32;33895;-84
2022/11/05 02:58:11;;;;;;;0.62;0.62;;;;;;;10.93;72.03;99160.91;4338335;32;35301;-84
2022/11/05 03:00:51;;;;;;;0.00;0.00;;;;;;;10.87;72.51;99160.38;4381112;32;34227;-84
2022/11/05 03:03:28;;;;;;;0.35;0.35;;;;;;;10.93;71.76;99158.25;4367107;32;34523;-83
2022/11/05 03:06:38;;;;;;;0.00;0.00;;;;;;;11.08;71.66;99163.63;4368872;32;34771;-83
2022/11/05 03:09:36;;;;;;;0.00;0.00;;;;;;;11.20;70.74;99163.81;4374748;32;32843;-84
2022/11/05 03:12:24;;;;;;;0.00;0.00;;;;;;;10.80;71.99;99159.88;4370571;32;32339;-83
2022/11/05 03:15:11;;;;;;;0.35;0.35;;;;;;;10.59;73.42;99158.41;4371941;32;33846;-83
2022/11/05 03:17:57;;;;;;;0.00;0.00;;;;;;;10.88;72.44;99156.81;4365755;32;33977;-83
2022/11/05 03:20:39;;;;;;;0.10;0.10;;;;;;;10.50;74.02;99172.94;4370370;32;33894;-82
2022/11/05 03:23:10;;;;;;;0.65;0.55;;;;;;;10.64;73.23;99164.28;4367349;32;33740;-83
2022/11/05 03:25:44;;;;;;;0.80;0.32;;;;;;;10.71;72.55;99161.22;4362693;32;32762;-83
2022/11/05 03:28:13;;;;;;;0.10;0.10;;;;;;;10.86;71.74;99180.66;4375279;32;34011;-84
2022/11/05 03:30:42;;;;;;;0.40;0.35;;;;;;;10.95;71.77;99189.84;4380801;32;33598;-83
2022/11/05 03:33:17;;;;;;;0.17;0.17;;;;;;;11.28;69.92;99185.34;4378395;32;33786;-83
2022/11/05 03:35:47;;;;;;;0.45;0.45;;;;;;;10.89;71.86;99185.78;4374620;32;34528;-83
2022/11/05 03:38:22;;;;;;;0.00;0.00;;;;;;;10.74;72.57;99182.19;4379851;32;33964;-83
2022/11/05 03:40:53;;;;;;;0.55;0.50;;;;;;;10.88;71.56;99184.06;4372821;32;33892;-83
2022/11/05 03:43:23;;;;;;;0.55;0.32;;;;;;;10.69;72.81;99183.38;4380932;32;32583;-83
2022/11/05 03:46:01;;;;;;;0.45;0.45;;;;;;;10.82;71.99;99178.25;4374485;32;33623;-83
2022/11/05 03:48:30;;;;;;;0.25;0.25;;;;;;;10.90;71.71;99189.25;4373755;32;33172;-84
2022/11/05 03:51:15;;;;;;;0.62;0.57;;;;;;;10.98;70.81;99190.56;4377478;32;33996;-82
2022/11/05 03:53:49;;;;;;;0.00;0.00;;;;;;;10.78;72.14;99198.72;4377954;32;34203;-82
2022/11/05 03:56:22;;;;;;;0.05;0.05;;;;;;;10.77;72.03;99191.72;4375220;32;32705;-83
2022/11/05 03:58:50;;;;;;;0.75;0.57;;;;;;;10.45;72.85;99193.47;4379755;32;33027;-84
2022/11/05 04:01:26;;;;;;;1.60;0.65;;;;;;;11.13;70.22;99196.78;4364775;32;33569;-85
2022/11/05 04:03:55;;;;;;;0.15;0.15;;;;;;;10.98;71.02;99201.13;4363043;32;31971;-85
2022/11/05 04:14:45;;;;;;;1.90;0.60;;;;;;;10.57;72.06;99173.47;4371737;32;32976;-85
2022/11/05 04:17:12;;;;;;;0.10;0.10;;;;;;;10.89;70.24;99180.50;4370330;32;33918;-85
2022/11/05 04:25:19;;;;;;;0.28;0.28;;;;;;;10.58;71.93;99193.63;4377234;32;33783;-85
2022/11/05 04:27:47;;;;;;;0.00;0.00;;;;;;;10.46;72.11;99185.44;4376093;32;33562;-83
2022/11/05 04:30:20;;;;;;;0.93;0.88;;;;;;;10.56;72.45;99177.03;4381650;32;33983;-82
2022/11/05 04:32:54;;;;;;;0.40;0.40;;;;;;;10.31;73.17;99182.78;4363577;32;34267;-83
2022/11/05 04:35:24;;;;;;;0.20;0.20;;;;;;;10.77;71.37;99175.88;4376110;32;34621;-83
2022/11/05 04:37:55;;;;;;;0.10;0.10;;;;;;;10.40;72.35;99175.22;4375959;32;32766;-82
2022/11/05 04:40:23;;;;;;;0.30;0.30;;;;;;;10.25;73.17;99168.09;4371764;32;33612;-83
2022/11/05 04:42:54;;;;;;;0.40;0.40;;;;;;;10.36;72.59;99165.75;4367981;32;34017;-83
2022/11/05 04:45:24;;;;;;;0.35;0.35;;;;;;;10.66;71.19;99167.69;4376408;32;33328;-82
2022/11/05 04:47:54;;;;;;;0.22;0.22;;;;;;;10.42;72.08;99170.69;4369652;32;32497;-83
2022/11/05 04:50:22;;;;;;;0.00;0.00;;;;;;;10.66;71.01;99172.97;4367003;32;33780;-83
2022/11/05 04:52:51;;;;;;;0.75;0.75;;;;;;;10.38;72.18;99173.59;4371613;32;33191;-84
2022/11/05 04:55:19;;;;;;;0.10;0.10;;;;;;;10.46;71.57;99174.88;4376997;32;34927;-84
2022/11/05 04:57:50;;;;;;;1.60;1.02;;;;;;;10.62;71.19;99176.69;4368382;32;35514;-84
2022/11/05 05:00:20;;;;;;;0.00;0.00;;;;;;;10.25;72.69;99176.88;4379752;32;33741;-83
2022/11/05 05:02:48;;;;;;;0.47;0.47;;;;;;;10.44;72.02;99171.50;4362875;32;34937;-83
2022/11/05 05:05:20;;;;;;;0.88;0.85;;;;;;;10.32;72.28;99176.56;4383622;32;32455;-83
2022/11/05 05:07:47;;;;;;;0.17;0.17;;;;;;;10.57;71.60;99162.91;4366876;32;32633;-83
2022/11/05 05:10:15;;;;;;;0.10;0.10;;;;;;;10.27;72.87;99171.50;4367527;32;33756;-83
2022/11/05 05:12:44;;;;;;;0.00;0.00;;;;;;;10.69;71.12;99167.53;4369792;32;33773;-84
2022/11/05 05:15:12;;;;;;;0.30;0.30;;;;;;;10.27;72.06;99160.97;4365749;32;32274;-82
2022/11/05 05:17:39;;;;;;;1.00;0.95;;;;;;;10.36;72.14;99157.00;4370716;32;33696;-83
2022/11/05 05:22:54;;;;;;;0.43;0.43;;;;;;;10.39;72.47;99173.50;4382157;32;33690;-84
2022/11/05 05:25:23;;;;;;;0.00;0.00;;;;;;;10.74;70.69;99186.63;4357905;32;33455;-82
2022/11/05 05:27:51;;;;;;;0.10;0.10;;;;;;;10.50;71.24;99184.34;4372531;32;33768;-83
2022/11/05 05:30:19;;;;;;;0.10;0.10;;;;;;;10.60;70.91;99194.44;4365292;32;32708;-82
2022/11/05 05:32:51;;;;;;;0.00;0.00;;;;;;;10.48;70.40;99201.19;4381721;32;34473;-83
2022/11/05 05:35:19;;;;;;;0.20;0.20;;;;;;;10.87;69.44;99192.06;4368275;32;32400;-83
2022/11/05 05:40:31;;;;;;;0.10;0.10;;;;;;;10.72;70.18;99199.03;4380408;32;34003;-83
2022/11/05 05:42:59;;;;;;;0.03;0.03;;;;;;;10.81;69.89;99195.88;4379867;32;34477;-84
2022/11/05 05:45:27;;;;;;;0.32;0.32;;;;;;;10.81;69.72;99198.53;4378570;32;33466;-84
2022/11/05 05:47:58;;;;;;;0.60;0.60;;;;;;;10.69;70.01;99200.06;4368139;32;33649;-83
2022/11/05 05:50:26;;;;;;;0.40;0.40;;;;;;;10.87;69.36;99208.78;4379593;32;34416;-82
2022/11/05 05:52:58;;;;;;;0.57;0.57;;;;;;;10.93;69.07;99213.72;4364622;32;33595;-84
2022/11/05 05:55:30;;;;;;;0.00;0.00;;;;;;;10.23;71.96;99217.44;4366106;32;33921;-84
2022/11/05 05:58:00;;;;;;;0.28;0.28;;;;;;;10.89;69.35;99233.31;4374625;32;33440;-84
2022/11/05 06:00:32;;;;;;;0.13;0.13;;;;;;;10.68;70.15;99240.59;4367195;32;33805;-84
2022/11/05 06:05:42;;;;;;;0.00;0.00;;;;;;;10.96;68.88;99254.94;4378853;32;33333;-84
2022/11/05 06:08:13;;;;;;;0.10;0.10;;;;;;;10.90;69.09;99260.56;4374783;32;35147;-84
2022/11/05 06:10:43;;;;;;;0.55;0.55;;;;;;;11.06;68.47;99263.22;4375148;32;34018;-83
2022/11/05 06:13:17;;;;;;;2.62;0.57;;;;;;;11.06;68.51;99276.44;4351979;32;33641;-84
2022/11/05 06:15:45;;;;;;;0.10;0.10;;;;;;;10.52;70.97;99274.84;4349611;32;33449;-83
2022/11/05 06:18:16;;;;;;;1.62;0.37;;;;;;;10.90;69.27;99274.63;4377618;32;33798;-84
2022/11/05 06:20:46;;;;;;;0.00;0.00;;;;;;;11.07;68.55;99280.81;4363354;32;32890;-83
2022/11/05 06:23:13;;;;;;;0.10;0.10;;;;;;;10.84;69.13;99285.53;4362903;32;33865;-83
2022/11/05 06:25:42;;;;;;;0.52;0.52;;;;;;;10.99;68.52;99297.91;4376006;32;32886;-83
2022/11/05 06:28:13;;;;;;;0.00;0.00;;;;;;;10.27;71.39;99298.16;4362756;32;32844;-83
2022/11/05 06:30:42;;;;;;;0.17;0.17;;;;;;;10.73;69.72;99295.81;4374804;32;34632;-84
2022/11/05 06:33:12;;;;;;;0.30;0.30;;;;;;;10.93;69.53;99298.25;4367168;32;32854;-83
2022/11/05 06:35:42;;;;;;;0.25;0.25;;;;;;;11.24;68.06;99299.22;4378783;32;33736;-83
2022/11/05 06:38:11;;;;;;;0.17;0.17;;;;;;;11.48;66.76;99292.59;4374955;32;33970;-83
2022/11/05 06:40:42;;;;;;;0.30;0.30;;;;;;;11.05;68.23;99306.44;4381692;32;32963;-83
2022/11/05 06:43:10;;;;;;;0.43;0.43;;;;;;;10.82;69.79;99302.38;4376848;32;33575;-83
2022/11/05 06:45:39;;;;;;;1.00;0.35;;;;;;;10.87;69.21;99301.22;4367087;32;33120;-83
2022/11/05 06:48:07;;;;;;;0.00;0.00;;;;;;;10.67;70.66;99298.75;4375824;32;34595;-83
2022/11/05 06:50:37;;;;;;;0.10;0.10;;;;;;;10.85;69.91;99308.37;4375839;32;33969;-83
2022/11/05 06:53:10;;;;;;;0.10;0.10;;;;;;;10.73;70.33;99316.94;4381154;32;33892;-83
2022/11/05 06:55:46;;;;;;;2.28;1.10;;;;;;;10.94;69.44;99326.38;4380251;32;33344;-83
2022/11/05 06:58:19;;;;;;;0.10;0.10;;;;;;;11.22;68.38;99325.75;4363569;32;32752;-83
2022/11/05 07:00:49;;;;;;;0.22;0.22;;;;;;;10.82;69.98;99321.72;4375762;32;33134;-83
2022/11/05 07:03:20;;;;;;;0.13;0.13;;;;;;;10.71;70.82;99322.28;4375611;32;32980;-83
2022/11/05 07:05:50;;;;;;;0.10;0.10;;;;;;;11.05;69.12;99322.31;4376069;32;33840;-83
2022/11/05 07:08:18;;;;;;;0.20;0.20;;;;;;;11.28;68.29;99329.84;4374199;32;34566;-83
2022/11/05 07:13:38;;;;;;;0.90;0.77;;;;;;;11.19;69.13;99336.47;4375058;32;34260;-84
2022/11/05 07:16:08;;;;;;;0.00;0.00;;;;;;;11.57;67.41;99336.19;4381139;32;32712;-84
2022/11/05 07:18:37;;;;;;;0.00;0.00;;;;;;;11.49;66.85;99333.97;4364513;32;34624;-84
2022/11/05 07:21:10;;;;;;;0.03;0.03;;;;;;;11.09;68.82;99335.25;4348260;32;33280;-84
2022/11/05 07:23:39;;;;;;;;;;;;;;;11.35;67.81;99344.47;4366909;32;33222;-83
2022/11/05 07:26:16;;;;;;;0.00;0.00;;;;;;;11.00;68.99;99339.25;4361614;32;32633;-83
2022/11/05 07:28:44;;;;;;;0.10;0.10;;;;;;;11.38;67.86;99341.62;4363914;32;33244;-84
2022/11/05 07:31:15;;;;;;;0.00;0.00;;;;;;;10.96;69.37;99348.25;4364801;32;33602;-84
2022/11/05 07:33:44;;;;;;;0.00;0.00;;;;;;;11.16;68.86;99341.09;4363198;32;34234;-84
2022/11/05 07:36:13;;;;;;;0.00;0.00;;;;;;;10.80;69.98;99344.72;4351810;32;33367;-84
2022/11/05 07:38:42;;;;;;;0.00;0.00;;;;;;;11.16;68.96;99346.37;4364023;32;33335;-84
2022/11/05 07:41:12;;;;;;;0.05;0.05;;;;;;;11.48;67.74;99336.69;4366756;32;34538;-84
2022/11/05 07:43:48;;;;;;;0.00;0.00;;;;;;;11.46;67.74;99336.78;4351332;32;33414;-83
2022/11/05 07:46:18;;;;;;;0.00;0.00;;;;;;;11.59;67.00;99339.63;4362693;32;34052;-84
2022/11/05 07:48:54;;;;;;;1.00;0.43;;;;;;;11.59;66.65;99342.25;4352881;32;34223;-83
2022/11/05 07:51:23;;;;;;;0.00;0.00;;;;;;;11.27;68.90;99344.00;4362558;32;33282;-84
2022/11/05 07:53:56;;;;;;;0.15;0.15;;;;;;;11.73;66.50;99346.78;4362003;32;33045;-84
2022/11/05 07:56:29;;;;;;;0.00;0.00;;;;;;;11.36;68.52;99346.16;4361511;32;33929;-84
2022/11/05 07:59:01;;;;;;;0.13;0.13;;;;;;;11.18;68.79;99339.22;4360750;32;33896;-86
2022/11/05 08:01:31;;;;;;;0.00;0.00;;;;;;;11.87;65.77;99346.91;4349922;32;34352;-86
2022/11/05 08:04:01;;;;;;;0.10;0.10;;;;;;;11.33;68.28;99348.94;4363734;32;33040;-86
2022/11/05 08:06:34;;;;;;;0.13;0.13;;;;;;;11.84;66.55;99340.94;4364354;32;34066;-86
2022/11/05 08:09:03;;;;;;;0.10;0.10;;;;;;;11.99;66.11;99332.97;4361027;32;33213;-86
2022/11/05 08:11:35;;;;;;;0.00;0.00;;;;;;;11.73;67.22;99334.41;4347533;32;33251;-86
2022/11/05 08:14:07;;;;;;;1.75;1.08;;;;;;;11.95;66.23;99327.94;4347657;32;32740;-87
2022/11/05 08:16:38;;;;;;;0.20;0.20;;;;;;;11.94;66.12;99335.03;4349223;32;32760;-86
2022/11/05 08:19:07;;;;;;;0.32;0.32;;;;;;;11.58;68.02;99331.75;4373350;32;33577;-86
2022/11/05 08:21:35;;;;;;;0.05;0.05;;;;;;;11.95;66.58;99318.19;4363529;32;32889;-86
2022/11/05 08:24:05;;;;;;;0.30;0.30;;;;;;;12.10;65.83;99312.97;4365306;32;33861;-86
2022/11/05 08:26:42;;;;;;;0.25;0.10;;;;;;;11.58;67.88;99318.53;4375503;32;34895;-85
2022/11/05 08:29:10;;;;;;;0.17;0.17;;;;;;;12.16;65.13;99312.63;4363866;32;32735;-86
2022/11/05 08:31:39;;;;;;;0.32;0.32;;;;;;;11.96;65.95;99306.69;4374223;32;32863;-85
2022/11/05 08:34:08;;;;;;;0.00;0.00;;;;;;;11.82;66.92;99309.28;4382479;32;34174;-86
2022/11/05 08:36:40;;;;;;;0.45;0.45;;;;;;;12.02;66.68;99319.56;4381490;32;34148;-86
2022/11/05 08:39:09;;;;;;;0.00;0.00;;;;;;;12.01;65.79;99324.94;4362781;32;32463;-85
2022/11/05 08:41:46;;;;;;;0.90;0.90;;;;;;;11.82;66.42;99329.53;4369492;32;33007;-86
2022/11/05 08:44:22;;;;;;;0.17;0.17;;;;;;;11.57;68.09;99322.97;4369085;32;34663;-85
2022/11/05 08:46:56;;;;;;;0.20;0.20;;;;;;;11.94;66.50;99321.78;4358303;32;32680;-85
2022/11/05 08:49:25;;;;;;;0.20;0.20;;;;;;;11.75;67.22;99329.03;4354515;32;33998;-85
2022/11/05 08:51:54;;;;;;;0.65;0.65;;;;;;;12.44;64.40;99331.25;4354176;32;33128;-86
2022/11/05 08:57:01;;;;;;;0.17;0.17;;;;;;;12.28;65.49;99346.31;4371238;32;32548;-86
2022/11/05 08:59:30;;;;;;;0.52;0.52;;;;;;;12.41;64.31;99334.09;4378534;32;33749;-85
2022/11/05 09:02:01;;;;;;;0.50;0.43;;;;;;;12.24;65.51;99344.78;4366840;32;33940;-86
2022/11/05 09:04:36;;;;;;;0.32;0.32;;;;;;;12.72;63.02;99351.69;4375742;32;34104;-86
2022/11/05 09:07:06;;;;;;;0.00;0.00;;;;;;;12.47;63.96;99352.25;4367442;32;33347;-86
2022/11/05 09:09:35;;;;;;;0.10;0.10;;;;;;;12.46;63.46;99357.66;4367839;32;34779;-85
2022/11/05 09:12:03;;;;;;;0.00;0.00;;;;;;;12.51;63.48;99359.06;4370917;32;33916;-86
2022/11/05 09:14:44;;;;;;;0.10;0.10;;;;;;;12.33;64.04;99359.28;4375606;32;34420;-85
2022/11/05 09:17:18;;;;;;;0.43;0.43;;;;;;;12.24;64.70;99365.97;4369265;32;33745;-86
2022/11/05 09:19:49;;;;;;;0.00;0.00;;;;;;;12.77;63.05;99361.97;4379450;32;32665;-85
2022/11/05 09:22:21;;;;;;;1.52;1.20;;;;;;;12.14;65.93;99362.13;4375908;32;34647;-85
2022/11/05 09:24:56;;;;;;;0.62;0.10;;;;;;;12.54;62.98;99369.50;4376326;32;34242;-84
2022/11/05 09:27:25;;;;;;;0.13;0.13;;;;;;;12.76;62.47;99370.88;4382114;32;33105;-85
2022/11/05 09:30:01;;;;;;;0.10;0.10;;;;;;;12.62;63.16;99368.19;4376886;32;34849;-85
2022/11/05 09:32:30;;;;;;;0.25;0.25;;;;;;;12.79;62.58;99376.84;4368718;32;34086;-85
2022/11/05 09:35:07;;;;;;;0.52;0.52;;;;;;;12.37;64.93;99374.91;4373760;32;33915;-85
2022/11/05 09:37:37;;;;;;;0.85;0.65;;;;;;;12.41;65.33;99376.44;4381847;32;36651;-85
2022/11/05 09:40:11;;;;;;;0.10;0.10;;;;;;;12.93;62.69;99367.22;4381837;32;32911;-86
2022/11/05 09:42:51;;;;;;;0.55;0.47;;;;;;;12.90;63.32;99357.66;4360677;32;33129;-86
2022/11/05 09:45:25;;;;;;;0.00;0.00;;;;;;;12.94;62.86;99358.31;4357378;32;32769;-86
2022/11/05 09:47:57;;;;;;;0.00;0.00;;;;;;;13.12;62.58;99356.34;4378497;32;32526;-85
2022/11/05 09:50:40;;;;;;;2.03;0.77;;;;;;;13.45;60.97;99342.84;4375702;32;33439;-86
2022/11/05 09:53:14;;;;;;;0.47;0.47;;;;;;;13.38;61.35;99352.97;4368854;32;34138;-86
2022/11/05 09:55:48;;;;;;;0.28;0.10;;;;;;;13.05;62.95;99351.44;4382888;32;33646;-86
2022/11/05 09:58:42;;;;;;;0.22;0.22;;;;;;;13.15;62.96;99356.16;4374905;32;34078;-85
2022/11/05 10:01:21;;;;;;;0.00;0.00;;;;;;;13.56;60.89;99361.56;4374113;32;34615;-86
2022/11/05 10:03:56;;;;;;;0.57;0.57;;;;;;;13.65;61.24;99354.84;4379101;32;33349;-86
2022/11/05 10:06:25;;;;;;;1.98;0.28;;;;;;;13.61;61.84;99354.19;4382801;32;33060;-86
2022/11/05 10:08:59;;;;;;;0.17;0.17;;;;;;;13.82;59.61;99347.53;4380828;32;31898;-86
2022/11/05 10:11:40;;;;;;;0.32;0.32;;;;;;;13.91;59.81;99339.88;4363284;32;33949;-86
2022/11/05 10:14:20;;;;;;;0.00;0.00;;;;;;;13.75;60.32;99350.66;4376104;32;33045;-91
2022/11/05 10:16:58;;;;;;;0.00;0.00;;;;;;;13.68;59.65;99349.34;4369101;32;32648;-91
2022/11/05 10:20:10;;;;;;;0.30;0.30;;;;;;;13.65;60.39;99349.53;4384292;32;31542;-91
2022/11/05 10:22:46;;;;;;;0.22;0.22;;;;;;;13.00;63.43;99352.63;4363640;32;33611;-91
2022/11/05 10:25:21;;;;;;;0.15;0.15;;;;;;;13.30;62.00;99345.50;4363503;32;33629;-91
2022/11/05 10:27:55;;;;;;;0.37;0.37;;;;;;;13.17;62.40;99341.03;4376523;32;32581;-91
2022/11/05 10:30:29;;;;;;;0.10;0.10;;;;;;;12.88;63.77;99335.69;4371123;32;33376;-91
2022/11/05 10:33:05;;;;;;;0.20;0.20;;;;;;;13.48;60.83;99332.03;4363617;32;34040;-85
2022/11/05 10:35:42;;;;;;;1.15;0.90;;;;;;;13.54;60.88;99340.47;4385667;32;33134;-86
2022/11/05 10:38:20;;;;;;;0.30;0.30;;;;;;;13.60;60.17;99331.25;4382088;32;34137;-86
2022/11/05 10:41:35;;;;;;;0.43;0.43;;;;;;;13.80;59.90;99327.31;4378577;32;33449;-86
2022/11/05 10:47:24;;;;;;;0.55;0.55;;;;;;;13.41;61.31;99336.88;4375777;32;34539;-86
2022/11/05 10:50:02;;;;;;;0.30;0.30;;;;;;;13.23;62.16;99344.16;4364201;32;34713;-86
2022/11/05 10:52:53;;;;;;;0.30;0.28;;;;;;;13.88;60.31;99346.28;4379895;32;32145;-86
2022/11/05 10:55:27;;;;;;;0.20;0.20;;;;;;;13.75;61.44;99340.03;4372614;32;34214;-86
2022/11/05 10:58:20;;;;;;;0.37;0.37;;;;;;;13.49;62.42;99350.50;4376091;32;34065;-86
2022/11/05 11:00:52;;;;;;;2.20;0.73;;;;;;;13.39;62.52;99360.00;4378970;32;32964;-86
2022/11/05 11:03:43;;;;;;;0.45;0.45;;;;;;;13.57;61.92;99360.63;4376121;32;34065;-86
2022/11/05 11:06:23;;;;;;;0.08;0.08;;;;;;;13.76;60.85;99362.97;4363423;32;32812;-86
2022/11/05 11:08:52;;;;;;;0.35;0.35;;;;;;;14.03;60.42;99350.56;4375206;32;34677;-87
2022/11/05 11:11:34;;;;;;;2.45;1.00;;;;;;;14.01;60.57;99357.81;4380796;32;34317;-86
2022/11/05 11:14:18;;;;;;;0.65;0.30;;;;;;;14.03;60.81;99339.97;4370992;32;32484;-86
2022/11/05 11:16:58;;;;;;;0.22;0.22;;;;;;;13.83;61.47;99348.38;4375406;32;33903;-85
2022/11/05 11:19:33;;;;;;;0.25;0.25;;;;;;;13.88;61.07;99346.28;4376367;32;32811;-83
2022/11/05 11:22:04;;;;;;;0.20;0.20;;;;;;;14.03;59.97;99345.25;4362827;32;32448;-83
2022/11/05 11:24:41;;;;;;;0.10;0.10;;;;;;;13.61;61.83;99350.69;4376620;32;34284;-83
2022/11/05 11:27:21;;;;;;;0.60;0.60;;;;;;;13.46;62.11;99345.37;4374481;32;33943;-82
2022/11/05 11:29:57;;;;;;;0.73;0.43;;;;;;;13.26;62.65;99351.09;4358665;32;34253;-83
2022/11/05 11:32:40;;;;;;;0.40;0.40;;;;;;;13.51;62.31;99351.25;4362531;32;33713;-82
2022/11/05 11:35:22;;;;;;;0.25;0.25;;;;;;;13.91;61.10;99355.81;4379355;32;32761;-82
2022/11/05 11:37:53;;;;;;;0.65;0.47;;;;;;;13.42;63.54;99353.63;4368084;32;33785;-83
2022/11/05 11:40:30;;;;;;;0.00;0.00;;;;;;;13.99;60.47;99343.75;4379326;32;34372;-83
2022/11/05 11:43:00;;;;;;;0.60;0.30;;;;;;;14.35;59.67;99329.87;4368208;32;32989;-83
2022/11/05 11:45:47;;;;;;;0.20;0.20;;;;;;;14.15;60.07;99334.78;4370595;32;32925;-82
2022/11/05 11:48:26;;;;;;;0.30;0.30;;;;;;;13.89;61.40;99331.19;4375033;32;34739;-81
2022/11/05 11:51:02;;;;;;;0.47;0.47;;;;;;;13.82;61.20;99338.72;4374916;32;34784;-81
2022/11/05 11:53:46;;;;;;;0.45;0.45;;;;;;;13.61;62.50;99348.03;4357764;32;33547;-82
2022/11/05 11:56:19;;;;;;;0.73;0.62;;;;;;;13.98;61.39;99331.44;4375160;32;32857;-82
2022/11/05 11:58:55;;;;;;;0.00;0.00;;;;;;;13.49;62.28;99347.88;4376047;32;35571;-82
2022/11/05 12:01:41;;;;;;;1.25;0.22;;;;;;;14.01;60.64;99356.94;4367583;32;33627;-82
2022/11/05 12:04:33;;;;;;;1.42;0.70;;;;;;;13.82;62.35;99358.13;4379374;32;34590;-82
2022/11/05 12:07:17;;;;;;;0.20;0.20;;;;;;;14.12;61.18;99356.25;4378874;32;33001;-83
2022/11/05 12:09:57;;;;;;;0.15;0.15;;;;;;;14.15;61.60;99345.41;4374372;32;32793;-83
2022/11/05 12:12:46;;;;;;;1.00;0.37;;;;;;;14.29;61.02;99355.97;4370585;32;35670;-82
2022/11/05 12:15:41;;;;;;;0.30;0.30;;;;;;;14.41;59.95;99352.50;4357993;32;33130;-82
2022/11/05 12:18:38;;;;;;;0.57;0.57;;;;;;;14.27;60.30;99352.56;4376559;32;32846;-82
2022/11/05 12:21:20;;;;;;;1.05;1.05;;;;;;;14.00;61.86;99372.00;4378482;32;33517;-82
2022/11/05 12:24:28;;;;;;;0.55;0.55;;;;;;;14.15;60.35;99369.31;4372954;32;34046;-82
2022/11/05 12:27:22;;;;;;;0.05;0.05;;;;;;;14.54;59.65;99382.66;4379687;32;34468;-82
2022/11/05 12:30:00;;;;;;;0.30;0.30;;;;;;;14.30;61.24;99382.44;4385934;32;33306;-83
2022/11/05 12:32:56;;;;;;;0.05;0.05;;;;;;;14.65;59.90;99389.06;4357533;32;32938;-82
2022/11/05 12:35:34;;;;;;;0.00;0.00;;;;;;;14.88;59.52;99380.38;4371255;32;32809;-82
2022/11/05 12:38:19;;;;;;;0.30;0.17;;;;;;;14.55;60.27;99381.69;4383310;32;33538;-83
2022/11/05 12:41:06;;;;;;;0.00;0.00;;;;;;;14.55;59.84;99378.19;4371236;32;33410;-83
2022/11/05 12:44:17;;;;;;;0.50;0.50;;;;;;;14.39;60.26;99374.84;4367381;32;33089;-82
2022/11/05 12:47:23;;;;;;;1.27;0.52;;;;;;;14.60;59.96;99379.59;4357122;32;33097;-83
2022/11/05 12:50:04;;;;;;;0.10;0.10;;;;;;;14.87;58.51;99381.34;4350463;32;33602;-82
2022/11/05 12:53:06;;;;;;;0.00;0.00;;;;;;;14.78;59.64;99389.94;4366687;32;33214;-82
2022/11/05 12:55:40;;;;;;;1.15;0.55;;;;;;;14.76;59.07;99391.84;4376406;32;32615;-83
2022/11/05 12:58:27;;;;;;;0.00;0.00;;;;;;;14.72;59.35;99403.66;4369501;32;33576;-83
2022/11/05 13:01:04;;;;;;;0.10;0.10;;;;;;;14.77;59.31;99409.50;4374547;32;34177;-82
2022/11/05 13:03:52;;;;;;;5.37;0.80;;;;;;;14.73;59.97;99408.00;4362458;32;31880;-83
2022/11/05 13:06:33;;;;;;;0.25;0.25;;;;;;;14.64;60.97;99413.94;4370613;32;34061;-82
2022/11/05 13:09:11;;;;;;;0.37;0.37;;;;;;;14.95;59.14;99408.25;4372935;32;33867;-82